createdAt,value
2019-06-19T00:02:04.123Z,17.70
2019-06-19T00:04:33.418Z,17.70
2019-06-19T00:07:03.774Z,17.70
2019-06-19T00:09:33.974Z,17.70
2019-06-19T00:12:06.221Z,17.80
2019-06-19T00:14:35.306Z,17.80
2019-06-19T00:17:04.542Z,17.80
2019-06-19T00:19:36.931Z,17.80
2019-06-19T00:22:06.355Z,17.80
2019-06-19T00:24:35.455Z,17.80
2019-06-19T00:27:04.566Z,17.70
2019-06-19T00:29:39.654Z,17.70
2019-06-19T00:32:04.026Z,17.70
2019-06-19T00:34:33.221Z,17.60
2019-06-19T00:37:03.486Z,17.70
2019-06-19T00:39:34.262Z,17.70
2019-06-19T00:42:03.402Z,17.70
2019-06-19T00:44:32.410Z,17.70
2019-06-19T00:47:01.682Z,17.70
2019-06-19T00:49:31.850Z,17.70
2019-06-19T00:52:01.254Z,17.70
2019-06-19T00:54:32.733Z,17.70
2019-06-19T00:57:03.287Z,17.70
2019-06-19T00:59:32.425Z,17.70
2019-06-19T01:02:01.744Z,17.70
2019-06-19T01:04:31.669Z,17.70
2019-06-19T01:07:01.758Z,17.70
2019-06-19T01:09:33.158Z,17.60
2019-06-19T01:12:02.162Z,17.60
2019-06-19T01:14:31.691Z,17.60
2019-06-19T01:17:01.786Z,17.60
2019-06-19T01:19:31.665Z,17.60
2019-06-19T01:22:01.338Z,17.50
2019-06-19T01:24:32.019Z,17.50
2019-06-19T01:27:01.973Z,17.50
2019-06-19T01:29:32.258Z,17.50
2019-06-19T01:32:01.912Z,17.50
2019-06-19T01:34:32.734Z,17.50
2019-06-19T01:37:02.787Z,17.50
2019-06-19T01:39:32.891Z,17.60
2019-06-19T01:42:02.355Z,17.50
2019-06-19T01:44:32.660Z,17.50
2019-06-19T01:47:02.322Z,17.50
2019-06-19T01:49:32.082Z,17.50
2019-06-19T01:52:03.320Z,17.40
2019-06-19T01:54:33.995Z,17.40
2019-06-19T01:57:03.571Z,17.30
2019-06-19T01:59:33.539Z,17.40
2019-06-19T02:02:04.359Z,17.40
2019-06-19T02:04:38.384Z,17.30
2019-06-19T02:07:11.142Z,17.40
2019-06-19T02:09:41.309Z,17.40
2019-06-19T02:12:11.343Z,17.40
2019-06-19T02:14:41.118Z,17.40
2019-06-19T02:17:11.308Z,17.40
2019-06-19T02:19:44.530Z,17.40
2019-06-19T02:22:12.094Z,17.40
2019-06-19T02:24:41.537Z,17.30
2019-06-19T02:27:11.294Z,17.30
2019-06-19T02:29:40.662Z,17.30
2019-06-19T02:32:11.965Z,17.30
2019-06-19T02:34:42.161Z,17.30
2019-06-19T02:37:12.101Z,17.30
2019-06-19T02:39:41.019Z,17.30
2019-06-19T02:42:10.767Z,17.30
2019-06-19T02:44:40.375Z,17.30
2019-06-19T02:47:09.578Z,17.30
2019-06-19T02:49:39.478Z,17.30
2019-06-19T02:52:08.809Z,17.30
2019-06-19T02:54:37.863Z,17.30
2019-06-19T02:57:07.146Z,17.30
2019-06-19T02:59:36.264Z,17.30
2019-06-19T03:02:05.427Z,17.30
2019-06-19T03:04:34.695Z,17.40
2019-06-19T03:07:03.958Z,17.40
2019-06-19T03:09:33.130Z,17.40
2019-06-19T03:12:02.586Z,17.40
2019-06-19T03:14:32.013Z,17.50
2019-06-19T03:17:03.440Z,17.50
2019-06-19T03:19:32.792Z,17.50
2019-06-19T03:22:02.016Z,17.40
2019-06-19T03:24:31.253Z,17.50
2019-06-19T03:27:00.661Z,17.50
2019-06-19T03:29:30.979Z,17.50
2019-06-19T03:32:00.997Z,17.50
2019-06-19T03:34:32.122Z,17.50
2019-06-19T03:37:06.442Z,17.50
2019-06-19T03:39:35.520Z,17.50
2019-06-19T03:42:04.718Z,17.50
2019-06-19T03:44:34.004Z,17.50
2019-06-19T03:47:03.118Z,17.40
2019-06-19T03:49:32.245Z,17.40
2019-06-19T03:52:01.442Z,17.40
2019-06-19T03:54:31.045Z,17.40
2019-06-19T03:57:01.264Z,17.50
2019-06-19T03:59:34.232Z,17.60
2019-06-19T04:02:03.737Z,17.70
2019-06-19T04:04:33.009Z,17.80
2019-06-19T04:07:03.186Z,17.80
2019-06-19T04:09:33.915Z,17.80
2019-06-19T04:12:02.969Z,17.90
2019-06-19T04:14:32.025Z,18.00
2019-06-19T04:17:02.507Z,18.00
2019-06-19T04:19:32.340Z,18.10
2019-06-19T04:22:02.105Z,18.20
2019-06-19T04:24:31.386Z,18.30
2019-06-19T04:27:02.477Z,18.40
2019-06-19T04:29:35.891Z,18.50
2019-06-19T04:32:09.918Z,18.60
2019-06-19T04:34:35.702Z,18.70
2019-06-19T04:37:04.494Z,18.90
2019-06-19T04:39:33.436Z,19.10
2019-06-19T04:42:02.287Z,19.30
2019-06-19T04:44:41.588Z,19.50
2019-06-19T04:47:13.161Z,19.80
2019-06-19T04:49:41.829Z,20.10
2019-06-19T04:52:10.526Z,20.30
2019-06-19T04:54:39.194Z,20.50
2019-06-19T04:57:08.438Z,20.60
2019-06-19T04:59:37.663Z,20.60
2019-06-19T05:02:20.210Z,20.60
2019-06-19T05:04:37.732Z,20.50
2019-06-19T05:07:06.902Z,20.30
2019-06-19T05:09:36.017Z,20.20
2019-06-19T05:12:05.184Z,20.00
2019-06-19T05:14:34.184Z,19.80
2019-06-19T05:17:03.548Z,19.70
2019-06-19T05:19:32.702Z,19.60
2019-06-19T05:22:02.630Z,19.50
2019-06-19T05:24:34.648Z,19.50
2019-06-19T05:27:03.917Z,19.50
2019-06-19T05:29:33.069Z,19.50
2019-06-19T05:32:02.484Z,19.50
2019-06-19T05:34:33.085Z,19.60
2019-06-19T05:37:04.272Z,19.60
2019-06-19T05:39:33.376Z,19.70
2019-06-19T05:42:02.773Z,19.80
2019-06-19T05:44:32.646Z,19.80
2019-06-19T05:47:02.161Z,19.70
2019-06-19T05:49:32.018Z,19.80
2019-06-19T05:52:02.573Z,19.90
2019-06-19T05:54:31.120Z,20.00
2019-06-19T05:56:59.987Z,20.20
2019-06-19T05:59:29.132Z,20.30
2019-06-19T06:01:57.890Z,20.40
2019-06-19T06:04:28.845Z,20.60
2019-06-19T06:06:59.021Z,20.70
2019-06-19T06:09:29.454Z,21.00
2019-06-19T06:12:00.537Z,21.50
2019-06-19T06:14:30.859Z,21.80
2019-06-19T06:17:01.298Z,21.80
2019-06-19T06:19:30.594Z,21.80
2019-06-19T06:22:02.559Z,21.60
2019-06-19T06:24:32.196Z,21.40
2019-06-19T06:27:02.273Z,21.10
2019-06-19T06:29:35.112Z,20.90
2019-06-19T06:32:03.919Z,20.70
2019-06-19T06:34:32.532Z,20.60
2019-06-19T06:37:01.874Z,20.40
2019-06-19T06:39:30.910Z,20.30
2019-06-19T06:42:00.519Z,20.30
2019-06-19T06:44:29.754Z,20.30
2019-06-19T06:46:58.909Z,20.30
2019-06-19T06:49:27.924Z,20.50
2019-06-19T06:52:00.982Z,21.10
2019-06-19T06:54:29.512Z,21.90
2019-06-19T06:57:00.456Z,22.50
2019-06-19T06:59:30.541Z,23.10
2019-06-19T07:01:59.816Z,23.50
2019-06-19T07:04:29.742Z,23.80
2019-06-19T07:07:00.341Z,24.10
2019-06-19T07:09:29.394Z,24.20
2019-06-19T07:11:58.490Z,24.40
2019-06-19T07:14:29.223Z,24.40
2019-06-19T07:16:58.844Z,24.30
2019-06-19T07:19:29.576Z,24.30
2019-06-19T07:21:58.783Z,23.90
2019-06-19T07:24:28.974Z,23.80
2019-06-19T07:26:57.875Z,23.80
2019-06-19T07:29:28.577Z,23.90
2019-06-19T07:31:57.323Z,23.90
2019-06-19T07:34:27.067Z,23.70
2019-06-19T07:36:55.923Z,23.70
2019-06-19T07:39:31.816Z,23.80
2019-06-19T07:41:54.730Z,24.00
2019-06-19T07:44:23.282Z,24.10
2019-06-19T07:46:51.943Z,24.30
2019-06-19T07:49:20.582Z,24.40
2019-06-19T07:51:49.182Z,24.50
2019-06-19T07:54:20.664Z,24.70
2019-06-19T07:56:48.002Z,24.70
2019-06-19T07:59:16.612Z,24.80
2019-06-19T08:01:45.211Z,24.70
2019-06-19T08:04:13.768Z,24.60
2019-06-19T08:06:42.362Z,24.70
2019-06-19T08:09:10.931Z,24.70
2019-06-19T08:11:39.533Z,24.80
2019-06-19T08:14:08.145Z,25.00
2019-06-19T08:16:36.696Z,25.20
2019-06-19T08:19:05.507Z,25.20
2019-06-19T08:21:34.400Z,25.30
2019-06-19T08:24:03.255Z,25.30
2019-06-19T08:26:32.021Z,25.40
2019-06-19T08:29:00.727Z,25.60
2019-06-19T08:31:29.313Z,25.60
2019-06-19T08:34:13.368Z,25.60
2019-06-19T08:36:29.065Z,25.60
2019-06-19T08:38:58.145Z,25.80
2019-06-19T08:41:27.308Z,26.00
2019-06-19T08:43:55.950Z,26.10
2019-06-19T08:46:24.516Z,26.20
2019-06-19T08:48:53.106Z,26.30
2019-06-19T08:51:21.671Z,26.40
2019-06-19T08:53:50.240Z,26.40
2019-06-19T08:56:18.953Z,26.40
2019-06-19T08:58:47.533Z,26.50
2019-06-19T09:01:16.136Z,26.50
2019-06-19T09:03:44.706Z,26.60
2019-06-19T09:06:13.305Z,26.60
2019-06-19T09:08:41.858Z,26.50
2019-06-19T09:11:18.295Z,26.60
2019-06-19T09:13:46.910Z,26.70
2019-06-19T09:16:15.454Z,26.80
2019-06-19T09:18:44.074Z,26.90
2019-06-19T09:21:12.635Z,26.90
2019-06-19T09:23:41.209Z,26.70
2019-06-19T09:26:09.882Z,26.60
2019-06-19T09:28:39.360Z,26.70
2019-06-19T09:31:08.661Z,26.50
2019-06-19T09:33:37.230Z,26.50
2019-06-19T09:36:05.788Z,26.30
2019-06-19T09:38:34.492Z,26.30
2019-06-19T09:41:03.085Z,26.50
2019-06-19T09:43:31.725Z,26.60
2019-06-19T09:46:00.314Z,26.70
2019-06-19T09:48:29.224Z,26.70
2019-06-19T09:50:57.933Z,26.80
2019-06-19T09:53:26.713Z,26.70
2019-06-19T09:55:55.274Z,26.80
2019-06-19T09:58:23.878Z,26.80
2019-06-19T10:00:52.446Z,26.80
2019-06-19T10:03:33.450Z,26.80
2019-06-19T10:05:51.338Z,27.20
2019-06-19T10:08:19.901Z,27.30
2019-06-19T10:10:48.518Z,27.40
2019-06-19T10:13:17.136Z,27.50
2019-06-19T10:15:58.467Z,27.50
2019-06-19T10:18:15.948Z,27.80
2019-06-19T10:20:44.545Z,27.80
2019-06-19T10:23:13.142Z,27.90
2019-06-19T10:25:41.706Z,28.10
2019-06-19T10:28:10.328Z,28.20
2019-06-19T10:30:39.347Z,28.20
2019-06-19T10:33:08.326Z,28.10
2019-06-19T10:35:37.490Z,28.10
2019-06-19T10:38:06.177Z,27.80
2019-06-19T10:40:34.838Z,27.00
2019-06-19T10:43:03.440Z,26.70
2019-06-19T10:45:32.073Z,26.80
2019-06-19T10:48:00.718Z,27.20
2019-06-19T10:50:29.286Z,27.70
2019-06-19T10:52:57.937Z,27.90
2019-06-19T10:55:26.554Z,28.10
2019-06-19T10:57:55.222Z,28.20
2019-06-19T11:00:23.959Z,28.20
2019-06-19T11:02:52.670Z,28.40
2019-06-19T11:05:21.294Z,28.30
2019-06-19T11:07:49.856Z,28.30
2019-06-19T11:10:18.549Z,28.40
2019-06-19T11:12:47.104Z,28.30
2019-06-19T11:15:17.339Z,27.90
2019-06-19T11:17:45.959Z,27.30
2019-06-19T11:20:15.362Z,27.00
2019-06-19T11:22:43.966Z,27.10
2019-06-19T11:25:13.058Z,27.10
2019-06-19T11:27:41.676Z,27.00
2019-06-19T11:30:13.536Z,27.20
2019-06-19T11:32:42.129Z,27.50
2019-06-19T11:35:12.069Z,28.00
2019-06-19T11:37:40.624Z,28.20
2019-06-19T11:40:09.865Z,28.50
2019-06-19T11:42:38.696Z,28.50
2019-06-19T11:45:08.795Z,28.50
2019-06-19T11:47:37.397Z,28.60
2019-06-19T11:50:09.739Z,28.20
2019-06-19T11:52:38.342Z,28.50
2019-06-19T11:55:07.650Z,28.80
2019-06-19T11:57:36.359Z,28.70
2019-06-19T12:00:10.823Z,28.00
2019-06-19T12:02:39.540Z,28.10
2019-06-19T12:05:08.531Z,28.50
2019-06-19T12:07:37.137Z,28.70
2019-06-19T12:10:09.534Z,28.40
2019-06-19T12:12:38.617Z,28.00
2019-06-19T12:15:07.715Z,27.60
2019-06-19T12:17:36.423Z,28.20
2019-06-19T12:20:07.030Z,28.60
2019-06-19T12:22:36.076Z,28.90
2019-06-19T12:25:07.761Z,29.30
2019-06-19T12:27:36.355Z,29.30
2019-06-19T12:30:10.403Z,29.00
2019-06-19T12:32:39.201Z,28.90
2019-06-19T12:35:14.040Z,28.90
2019-06-19T12:37:43.336Z,28.90
2019-06-19T12:40:13.421Z,29.00
2019-06-19T12:42:42.015Z,29.10
2019-06-19T12:45:12.286Z,29.10
2019-06-19T12:47:40.851Z,29.30
2019-06-19T12:50:13.897Z,29.40
2019-06-19T12:52:42.828Z,29.20
2019-06-19T12:55:11.912Z,28.90
2019-06-19T12:57:40.484Z,28.50
2019-06-19T13:00:12.207Z,27.90
2019-06-19T13:02:40.849Z,27.40
2019-06-19T13:05:09.931Z,26.90
2019-06-19T13:07:38.905Z,26.90
2019-06-19T13:10:08.226Z,26.70
2019-06-19T13:12:37.004Z,26.30
2019-06-19T13:15:07.507Z,25.90
2019-06-19T13:17:36.410Z,25.60
2019-06-19T13:20:07.000Z,25.30
2019-06-19T13:22:35.762Z,25.10
2019-06-19T13:25:07.890Z,24.90
2019-06-19T13:27:36.884Z,24.70
2019-06-19T13:30:16.764Z,24.50
2019-06-19T13:32:45.785Z,24.30
2019-06-19T13:35:16.071Z,24.20
2019-06-19T13:37:44.719Z,24.10
2019-06-19T13:40:15.633Z,24.00
2019-06-19T13:42:44.236Z,24.00
2019-06-19T13:45:13.428Z,23.80
2019-06-19T13:47:42.030Z,23.90
2019-06-19T13:50:12.597Z,23.90
2019-06-19T13:52:41.269Z,23.80
2019-06-19T13:55:11.605Z,23.70
2019-06-19T13:57:47.221Z,23.60
2019-06-19T14:00:12.354Z,23.70
2019-06-19T14:02:40.970Z,23.80
2019-06-19T14:05:10.611Z,23.80
2019-06-19T14:07:39.202Z,23.70
2019-06-19T14:10:11.943Z,23.60
2019-06-19T14:12:40.486Z,23.50
2019-06-19T14:15:09.885Z,23.50
2019-06-19T14:17:38.643Z,23.60
2019-06-19T14:20:07.700Z,23.70
2019-06-19T14:22:37.262Z,23.70
2019-06-19T14:25:09.881Z,23.70
2019-06-19T14:27:38.477Z,23.70
2019-06-19T14:30:10.342Z,23.90
2019-06-19T14:32:39.074Z,24.00
2019-06-19T14:35:10.474Z,24.10
2019-06-19T14:37:39.219Z,24.20
2019-06-19T14:40:09.525Z,24.30
2019-06-19T14:42:38.387Z,24.80
2019-06-19T14:45:07.919Z,25.10
2019-06-19T14:47:36.730Z,25.70
2019-06-19T14:50:07.285Z,26.00
2019-06-19T14:52:36.041Z,26.30
2019-06-19T14:55:05.797Z,26.60
2019-06-19T14:57:34.407Z,27.10
2019-06-19T15:00:04.291Z,27.30
2019-06-19T15:02:32.928Z,27.90
2019-06-19T15:05:01.513Z,28.30
2019-06-19T15:07:30.365Z,28.60
2019-06-19T15:09:59.116Z,28.70
2019-06-19T15:12:27.926Z,28.50
2019-06-19T15:14:56.817Z,28.20
2019-06-19T15:17:28.309Z,28.50
2019-06-19T15:19:57.027Z,28.70
2019-06-19T15:22:25.588Z,28.40
2019-06-19T15:24:54.195Z,28.00
2019-06-19T15:27:22.750Z,27.90
2019-06-19T15:29:51.317Z,27.80
2019-06-19T15:32:19.927Z,27.90
2019-06-19T15:34:48.492Z,28.00
2019-06-19T15:37:17.059Z,28.10
2019-06-19T15:39:45.659Z,28.20
2019-06-19T15:42:14.217Z,28.70
2019-06-19T15:44:42.813Z,29.80
2019-06-19T15:47:11.387Z,31.00
2019-06-19T15:49:39.994Z,31.50
2019-06-19T15:52:08.557Z,31.70
2019-06-19T15:54:37.169Z,32.00
2019-06-19T15:57:05.788Z,32.30
2019-06-19T15:59:34.365Z,33.00
2019-06-19T16:02:02.971Z,33.60
2019-06-19T16:04:31.704Z,33.90
2019-06-19T16:07:01.656Z,33.80
2019-06-19T16:09:30.296Z,33.90
2019-06-19T16:11:59.733Z,33.70
2019-06-19T16:14:28.335Z,33.50
2019-06-19T16:16:56.954Z,33.20
2019-06-19T16:19:25.556Z,33.40
2019-06-19T16:21:54.146Z,33.30
2019-06-19T16:24:22.699Z,33.20
2019-06-19T16:26:51.508Z,33.20
2019-06-19T16:29:20.208Z,33.00
2019-06-19T16:31:48.778Z,33.20
2019-06-19T16:34:17.379Z,33.40
2019-06-19T16:36:45.942Z,33.50
2019-06-19T16:39:17.409Z,33.40
2019-06-19T16:41:57.288Z,33.20
2019-06-19T16:44:21.872Z,33.00
2019-06-19T16:46:50.462Z,33.40
2019-06-19T16:49:19.068Z,34.10
2019-06-19T16:51:47.642Z,34.20
2019-06-19T16:54:17.787Z,34.00
2019-06-19T16:56:46.359Z,33.70
2019-06-19T16:59:14.961Z,33.40
2019-06-19T17:01:43.526Z,33.20
2019-06-19T17:04:12.118Z,33.40
2019-06-19T17:06:40.681Z,33.40
2019-06-19T17:09:09.725Z,33.00
2019-06-19T17:11:38.285Z,32.50
2019-06-19T17:14:07.016Z,32.00
2019-06-19T17:16:35.623Z,31.70
2019-06-19T17:19:06.058Z,31.70
2019-06-19T17:21:50.087Z,31.80
2019-06-19T17:24:05.315Z,31.90
2019-06-19T17:26:35.065Z,32.00
2019-06-19T17:29:04.425Z,32.00
2019-06-19T17:31:33.525Z,32.10
2019-06-19T17:34:02.470Z,31.50
2019-06-19T17:36:33.167Z,30.60
2019-06-19T17:39:01.730Z,30.00
2019-06-19T17:41:30.761Z,29.90
2019-06-19T17:43:59.304Z,30.10
2019-06-19T17:46:30.692Z,30.30
2019-06-19T17:48:59.995Z,30.40
2019-06-19T17:51:28.906Z,30.30
2019-06-19T17:53:57.530Z,29.60
2019-06-19T17:56:26.098Z,28.50
2019-06-19T17:58:54.767Z,27.50
2019-06-19T18:01:23.371Z,26.60
2019-06-19T18:03:51.971Z,26.00
2019-06-19T18:06:20.515Z,25.50
2019-06-19T18:08:49.106Z,25.10
2019-06-19T18:11:17.662Z,24.70
2019-06-19T18:13:47.068Z,24.60
2019-06-19T18:16:15.622Z,24.50
2019-06-19T18:18:44.225Z,24.30
2019-06-19T18:21:12.829Z,24.00
2019-06-19T18:23:41.405Z,23.60
2019-06-19T18:26:09.998Z,23.30
2019-06-19T18:28:38.588Z,23.00
2019-06-19T18:31:07.192Z,22.80
2019-06-19T18:33:36.247Z,22.60
2019-06-19T18:36:04.886Z,22.40
2019-06-19T18:38:33.521Z,22.30
2019-06-19T18:41:02.205Z,22.30
2019-06-19T18:43:30.876Z,22.20
2019-06-19T18:45:59.546Z,22.20
2019-06-19T18:48:28.342Z,22.30
2019-06-19T18:50:58.734Z,22.30
2019-06-19T18:53:27.339Z,22.30
2019-06-19T18:55:55.947Z,22.30
2019-06-19T18:58:24.491Z,22.20
2019-06-19T19:00:53.099Z,22.10
2019-06-19T19:03:21.658Z,22.10
2019-06-19T19:05:50.262Z,22.00
2019-06-19T19:08:18.818Z,21.90
2019-06-19T19:10:47.423Z,21.80
2019-06-19T19:13:15.982Z,21.80
2019-06-19T19:15:44.775Z,21.70
2019-06-19T19:18:13.327Z,21.70
2019-06-19T19:20:41.886Z,21.70
2019-06-19T19:23:10.666Z,21.70
2019-06-19T19:25:39.376Z,21.70
2019-06-19T19:28:08.122Z,21.60
2019-06-19T19:30:36.803Z,21.60
2019-06-19T19:33:05.605Z,21.70
2019-06-19T19:35:34.240Z,21.80
2019-06-19T19:38:02.991Z,21.80
2019-06-19T19:40:31.937Z,21.80
2019-06-19T19:43:00.737Z,21.70
2019-06-19T19:45:37.048Z,21.80
2019-06-19T19:48:06.592Z,22.00
2019-06-19T19:50:35.362Z,22.40
2019-06-19T19:53:06.116Z,22.60
2019-06-19T19:55:35.538Z,22.70
2019-06-19T19:58:04.603Z,22.70
2019-06-19T20:00:39.575Z,22.70
2019-06-19T20:03:08.360Z,22.70
2019-06-19T20:05:38.023Z,22.60
2019-06-19T20:08:06.811Z,22.50
2019-06-19T20:10:46.611Z,22.50
2019-06-19T20:13:09.129Z,22.40
2019-06-19T20:15:37.774Z,22.30
2019-06-19T20:18:10.197Z,22.20
2019-06-19T20:20:37.128Z,22.10
2019-06-19T20:23:06.458Z,22.00
2019-06-19T20:25:35.185Z,21.90
2019-06-19T20:28:04.073Z,21.80
2019-06-19T20:30:32.817Z,21.70
2019-06-19T20:33:01.526Z,21.70
2019-06-19T20:35:30.258Z,21.50
2019-06-19T20:37:59.329Z,21.50
2019-06-19T20:40:28.590Z,21.40
2019-06-19T20:42:57.324Z,21.40
2019-06-19T20:45:25.892Z,21.30
2019-06-19T20:47:54.435Z,21.20
2019-06-19T20:50:23.170Z,21.20
2019-06-19T20:52:56.369Z,21.10
2019-06-19T20:55:21.990Z,21.10
2019-06-19T20:57:50.599Z,21.20
2019-06-19T21:00:19.598Z,21.10
2019-06-19T21:02:48.198Z,21.00
2019-06-19T21:05:16.758Z,21.10
2019-06-19T21:07:45.359Z,20.90
2019-06-19T21:10:15.774Z,20.90
2019-06-19T21:12:44.386Z,21.00
2019-06-19T21:15:13.685Z,20.80
2019-06-19T21:17:42.318Z,20.90
2019-06-19T21:20:11.286Z,20.90
2019-06-19T21:22:40.006Z,20.90
2019-06-19T21:25:09.454Z,20.80
2019-06-19T21:27:38.215Z,20.80
2019-06-19T21:30:08.958Z,20.70
2019-06-19T21:32:37.993Z,20.70
2019-06-19T21:35:07.802Z,20.60
2019-06-19T21:37:36.874Z,20.50
2019-06-19T21:40:09.065Z,20.50
2019-06-19T21:42:38.269Z,20.40
2019-06-19T21:45:08.219Z,20.30
2019-06-19T21:47:37.007Z,20.20
2019-06-19T21:50:07.527Z,20.10
2019-06-19T21:52:36.411Z,20.00
2019-06-19T21:55:06.081Z,20.00
2019-06-19T21:57:35.039Z,19.90
2019-06-19T22:00:09.333Z,19.90
2019-06-19T22:02:37.955Z,19.90
2019-06-19T22:05:07.345Z,19.90
2019-06-19T22:07:36.133Z,19.90
2019-06-19T22:10:06.942Z,19.80
2019-06-19T22:12:35.669Z,19.90
2019-06-19T22:15:06.192Z,19.80
2019-06-19T22:17:34.829Z,19.70
2019-06-19T22:20:04.650Z,19.70
2019-06-19T22:22:33.620Z,19.70
2019-06-19T22:25:02.550Z,19.60
2019-06-19T22:27:32.199Z,19.50
2019-06-19T22:30:01.335Z,19.50
2019-06-19T22:32:30.301Z,19.40
2019-06-19T22:34:59.961Z,19.40
2019-06-19T22:37:28.966Z,19.40
2019-06-19T22:39:59.061Z,19.40
2019-06-19T22:42:30.106Z,19.30
2019-06-19T22:44:59.013Z,19.30
2019-06-19T22:47:28.077Z,19.20
2019-06-19T22:49:56.705Z,19.20
2019-06-19T22:52:25.286Z,19.20
2019-06-19T22:54:53.846Z,19.10
2019-06-19T22:57:22.410Z,19.10
2019-06-19T22:59:51.038Z,18.90
2019-06-19T23:02:21.242Z,18.90
2019-06-19T23:04:49.841Z,18.90
2019-06-19T23:07:18.772Z,18.90
2019-06-19T23:09:47.370Z,18.80
2019-06-19T23:12:27.209Z,18.70
2019-06-19T23:14:46.138Z,18.70
2019-06-19T23:17:14.822Z,18.80
2019-06-19T23:19:43.439Z,18.80
2019-06-19T23:22:11.999Z,18.90
2019-06-19T23:24:40.627Z,18.80
2019-06-19T23:27:09.546Z,18.70
2019-06-19T23:29:38.384Z,18.70
2019-06-19T23:32:07.174Z,18.70
2019-06-19T23:34:35.974Z,18.70
2019-06-19T23:37:04.777Z,18.80
2019-06-19T23:39:33.685Z,18.70
2019-06-19T23:42:02.891Z,18.70
2019-06-19T23:44:32.252Z,18.60
2019-06-19T23:47:01.170Z,18.60
2019-06-19T23:49:30.513Z,18.60
2019-06-19T23:51:59.859Z,18.40
2019-06-19T23:54:29.552Z,18.40
2019-06-19T23:56:59.111Z,18.40
2019-06-19T23:59:28.184Z,18.40
